createdAt,value
2022-10-18T00:02:11.983Z,15.03
2022-10-18T00:04:38.563Z,16.02
2022-10-18T00:07:05.243Z,14.70
2022-10-18T00:09:32.098Z,14.65
2022-10-18T00:11:58.791Z,13.95
2022-10-18T00:14:25.331Z,13.30
2022-10-18T00:16:51.931Z,13.32
2022-10-18T00:19:18.485Z,13.52
2022-10-18T00:24:16.587Z,12.20
2022-10-18T00:26:43.416Z,12.97
2022-10-18T00:29:13.222Z,11.55
2022-10-18T00:31:39.960Z,12.15
2022-10-18T00:34:11.155Z,11.68
2022-10-18T00:36:37.762Z,13.05
2022-10-18T00:39:06.034Z,10.93
2022-10-18T00:41:34.924Z,11.07
2022-10-18T00:44:27.557Z,11.43
2022-10-18T00:47:04.820Z,10.88
2022-10-18T00:49:44.450Z,11.00
2022-10-18T00:52:22.310Z,10.23
2022-10-18T00:54:50.482Z,12.07
2022-10-18T00:57:17.738Z,12.23
2022-10-18T00:59:45.966Z,11.35
2022-10-18T01:02:15.049Z,11.70
2022-10-18T01:04:41.630Z,10.13
2022-10-18T01:07:26.279Z,9.85
2022-10-18T01:10:23.306Z,10.73
2022-10-18T01:13:28.236Z,9.93
2022-10-18T01:16:00.214Z,10.05
2022-10-18T01:18:57.670Z,9.90
2022-10-18T01:21:30.128Z,9.73
2022-10-18T01:24:21.287Z,11.48
2022-10-18T01:27:19.564Z,10.60
2022-10-18T01:30:15.307Z,10.10
2022-10-18T01:32:47.198Z,9.93
2022-10-18T01:35:17.870Z,11.68
2022-10-18T01:37:47.819Z,9.85
2022-10-18T01:40:18.145Z,10.80
2022-10-18T01:42:47.251Z,9.50
2022-10-18T01:45:16.130Z,10.60
2022-10-18T01:47:47.094Z,8.65
2022-10-18T01:50:14.138Z,9.20
2022-10-18T01:52:51.000Z,11.32
2022-10-18T01:55:22.478Z,11.75
2022-10-18T01:58:17.462Z,10.43
2022-10-18T02:00:44.687Z,10.85
2022-10-18T02:03:22.198Z,11.75
2022-10-18T02:05:57.059Z,10.32
2022-10-18T02:08:38.595Z,9.88
2022-10-18T02:11:06.776Z,10.83
2022-10-18T02:13:51.876Z,10.25
2022-10-18T02:16:39.345Z,10.10
2022-10-18T02:19:10.547Z,10.05
2022-10-18T02:21:40.843Z,8.93
2022-10-18T02:24:09.279Z,9.10
2022-10-18T02:26:35.976Z,8.90
2022-10-18T02:29:02.856Z,9.85
2022-10-18T02:31:37.323Z,9.07
2022-10-18T02:34:24.263Z,9.18
2022-10-18T02:36:54.944Z,9.33
2022-10-18T02:39:30.894Z,8.82
2022-10-18T02:41:58.548Z,9.50
2022-10-18T02:44:25.334Z,8.90
2022-10-18T02:46:52.944Z,8.98
2022-10-18T02:49:19.544Z,10.03
2022-10-18T02:51:46.083Z,8.75
2022-10-18T02:54:12.619Z,9.95
2022-10-18T02:56:39.180Z,9.40
2022-10-18T02:59:07.320Z,9.75
2022-10-18T03:01:36.265Z,9.40
2022-10-18T03:04:04.095Z,9.02
2022-10-18T03:06:31.157Z,8.55
2022-10-18T03:08:57.782Z,8.88
2022-10-18T03:11:24.379Z,8.70
2022-10-18T03:13:51.046Z,8.57
2022-10-18T03:16:18.110Z,9.68
2022-10-18T03:18:44.676Z,9.35
2022-10-18T03:21:11.263Z,9.73
2022-10-18T03:23:37.863Z,9.27
2022-10-18T03:26:04.502Z,10.43
2022-10-18T03:28:31.124Z,10.38
2022-10-18T03:31:02.311Z,11.95
2022-10-18T03:33:29.646Z,10.65
2022-10-18T03:35:56.407Z,11.30
2022-10-18T03:38:23.022Z,11.23
2022-10-18T03:40:49.676Z,11.57
2022-10-18T03:43:16.259Z,11.38
2022-10-18T03:45:42.953Z,11.15
2022-10-18T03:48:09.538Z,10.98
2022-10-18T03:50:36.119Z,11.53
2022-10-18T03:53:02.868Z,11.10
2022-10-18T03:55:29.496Z,10.27
2022-10-18T03:57:56.087Z,11.25
2022-10-18T04:00:22.773Z,11.23
2022-10-18T04:02:52.079Z,10.50
2022-10-18T04:05:23.920Z,10.82
2022-10-18T04:07:50.712Z,11.52
2022-10-18T04:10:18.562Z,11.20
2022-10-18T04:12:45.135Z,11.25
2022-10-18T04:15:11.973Z,11.47
2022-10-18T04:17:38.539Z,10.27
2022-10-18T04:20:05.688Z,10.23
2022-10-18T04:22:32.264Z,10.80
2022-10-18T04:24:58.898Z,11.00
2022-10-18T04:27:25.555Z,11.67
2022-10-18T04:29:52.173Z,12.10
2022-10-18T04:32:18.804Z,13.05
2022-10-18T04:34:45.393Z,11.77
2022-10-18T04:37:11.992Z,11.63
2022-10-18T04:39:38.668Z,12.40
2022-10-18T04:42:05.363Z,11.02
2022-10-18T04:44:32.038Z,12.27
2022-10-18T04:46:59.303Z,11.50
2022-10-18T04:49:25.870Z,11.75
2022-10-18T04:51:52.426Z,11.70
2022-10-18T04:54:18.988Z,12.45
2022-10-18T04:56:45.545Z,12.60
2022-10-18T04:59:12.109Z,13.43
2022-10-18T05:01:38.745Z,13.82
2022-10-18T05:04:05.388Z,13.20
2022-10-18T05:06:32.007Z,14.10
2022-10-18T05:08:58.815Z,13.15
2022-10-18T05:11:25.389Z,13.15
2022-10-18T05:13:52.234Z,12.30
2022-10-18T05:16:18.869Z,12.67
2022-10-18T05:18:45.419Z,12.30
2022-10-18T05:21:12.411Z,12.77
2022-10-18T05:23:39.312Z,14.10
2022-10-18T05:26:07.183Z,12.88
2022-10-18T05:28:40.219Z,14.07
2022-10-18T05:31:09.751Z,16.13
2022-10-18T05:33:36.552Z,16.15
2022-10-18T05:36:03.708Z,11.57
2022-10-18T05:38:30.932Z,10.68
2022-10-18T05:40:58.470Z,9.60
2022-10-18T05:43:28.849Z,9.88
2022-10-18T05:45:55.671Z,8.60
2022-10-18T05:48:22.572Z,7.40
2022-10-18T05:50:49.145Z,6.90
2022-10-18T05:53:35.290Z,9.60
2022-10-18T05:56:03.108Z,6.65
2022-10-18T05:58:29.721Z,8.20
2022-10-18T06:01:00.004Z,6.85
2022-10-18T06:03:27.630Z,5.78
2022-10-18T06:05:59.529Z,5.87
2022-10-18T06:08:26.131Z,5.00
2022-10-18T06:10:52.816Z,6.50
2022-10-18T06:13:19.394Z,6.85
2022-10-18T06:15:46.004Z,6.15
2022-10-18T06:18:12.559Z,8.03
2022-10-18T06:20:39.134Z,5.72
2022-10-18T06:23:05.771Z,7.03
2022-10-18T06:25:32.375Z,5.90
2022-10-18T06:27:58.920Z,5.28
2022-10-18T06:30:25.580Z,5.87
2022-10-18T06:32:52.174Z,5.35
2022-10-18T06:35:18.743Z,5.85
2022-10-18T06:37:45.287Z,5.20
2022-10-18T06:40:12.204Z,4.80
2022-10-18T06:42:38.788Z,4.77
2022-10-18T06:45:06.100Z,4.95
2022-10-18T06:47:32.669Z,3.85
2022-10-18T06:49:59.782Z,4.50
2022-10-18T06:52:26.457Z,4.57
2022-10-18T06:54:53.752Z,4.00
2022-10-18T06:57:21.146Z,4.65
2022-10-18T06:59:47.740Z,3.90
2022-10-18T07:02:16.569Z,3.80
2022-10-18T07:04:43.595Z,3.67
2022-10-18T07:07:10.228Z,4.23
2022-10-18T07:09:36.872Z,4.50
2022-10-18T07:12:03.628Z,3.97
2022-10-18T07:14:30.179Z,4.25
2022-10-18T07:16:59.436Z,4.25
2022-10-18T07:19:26.055Z,4.43
2022-10-18T07:21:52.631Z,4.75
2022-10-18T07:24:19.174Z,4.32
2022-10-18T07:26:45.732Z,4.63
2022-10-18T07:29:13.191Z,4.50
2022-10-18T07:31:40.760Z,4.30
2022-10-18T07:34:08.651Z,5.15
2022-10-18T07:36:35.416Z,4.63
2022-10-18T07:39:02.011Z,5.30
2022-10-18T07:41:29.142Z,5.45
2022-10-18T07:43:55.695Z,6.30
2022-10-18T07:46:22.918Z,5.78
2022-10-18T07:48:50.094Z,5.85
2022-10-18T07:51:18.203Z,5.70
2022-10-18T07:53:45.075Z,6.10
2022-10-18T07:56:17.055Z,4.90
2022-10-18T07:58:44.528Z,5.60
2022-10-18T08:01:12.158Z,5.10
2022-10-18T08:03:40.739Z,5.82
2022-10-18T08:06:09.552Z,5.70
2022-10-18T08:08:38.389Z,5.17
2022-10-18T08:11:08.163Z,5.30
2022-10-18T08:13:34.786Z,5.07
2022-10-18T08:16:02.969Z,5.05
2022-10-18T08:18:30.360Z,5.00
2022-10-18T08:20:59.252Z,4.13
2022-10-18T08:23:25.990Z,4.55
2022-10-18T08:25:52.809Z,4.20
2022-10-18T08:28:19.436Z,4.15
2022-10-18T08:30:46.052Z,4.47
2022-10-18T08:33:12.723Z,4.33
2022-10-18T08:35:39.476Z,5.18
2022-10-18T08:38:13.875Z,4.28
2022-10-18T08:40:45.497Z,4.32
2022-10-18T08:46:01.314Z,4.00
2022-10-18T08:48:35.540Z,3.72
2022-10-18T08:51:04.342Z,3.90
2022-10-18T08:53:45.695Z,4.28
2022-10-18T08:56:15.831Z,4.38
2022-10-18T08:58:46.748Z,5.60
2022-10-18T09:01:31.420Z,4.95
2022-10-18T09:04:27.032Z,4.82
2022-10-18T09:06:56.424Z,4.72
2022-10-18T09:09:41.888Z,4.60
2022-10-18T09:12:36.417Z,4.10
2022-10-18T09:15:28.196Z,3.53
2022-10-18T09:18:18.221Z,3.03
2022-10-18T09:20:56.937Z,3.55
2022-10-18T09:23:43.928Z,2.70
2022-10-18T09:26:18.999Z,2.43
2022-10-18T09:29:09.440Z,3.40
2022-10-18T09:31:47.765Z,2.50
2022-10-18T09:34:26.484Z,3.03
2022-10-18T09:36:53.447Z,2.47
2022-10-18T09:39:25.580Z,3.08
2022-10-18T09:42:11.323Z,2.80
2022-10-18T09:44:46.792Z,2.90
2022-10-18T09:47:37.684Z,2.95
2022-10-18T09:50:24.052Z,2.90
2022-10-18T09:53:20.075Z,2.50
2022-10-18T09:56:03.549Z,2.42
2022-10-18T09:58:42.635Z,2.13
2022-10-18T10:01:11.771Z,2.85
2022-10-18T10:03:39.293Z,2.72
2022-10-18T10:06:11.901Z,2.35
2022-10-18T10:08:48.209Z,2.33
2022-10-18T10:11:47.914Z,2.53
2022-10-18T10:16:53.534Z,2.00
2022-10-18T10:19:27.935Z,2.37
2022-10-18T10:22:14.242Z,1.80
2022-10-18T10:24:50.721Z,1.98
2022-10-18T10:27:43.232Z,1.90
2022-10-18T10:30:37.504Z,2.00
2022-10-18T10:33:05.462Z,1.70
2022-10-18T10:35:53.168Z,2.03
2022-10-18T10:38:26.214Z,2.17
2022-10-18T10:40:53.954Z,1.75
2022-10-18T10:43:38.617Z,1.83
2022-10-18T10:46:18.863Z,1.90
2022-10-18T10:49:04.445Z,2.15
2022-10-18T10:51:43.526Z,1.90
2022-10-18T10:54:16.746Z,1.55
2022-10-18T10:57:01.618Z,1.90
2022-10-18T10:59:32.282Z,1.63
2022-10-18T11:02:21.551Z,2.22
2022-10-18T11:04:50.589Z,1.67
2022-10-18T11:07:35.620Z,1.33
2022-10-18T11:10:11.371Z,1.50
2022-10-18T11:13:01.399Z,1.70
2022-10-18T11:15:45.066Z,1.75
2022-10-18T11:18:22.105Z,1.65
2022-10-18T11:21:11.359Z,2.30
2022-10-18T11:23:40.516Z,2.03
2022-10-18T11:26:13.456Z,1.53
2022-10-18T11:28:58.361Z,1.90
2022-10-18T11:31:27.675Z,1.60
2022-10-18T11:34:17.521Z,1.80
2022-10-18T11:37:32.169Z,1.83
2022-10-18T11:40:22.827Z,2.00
2022-10-18T11:43:13.612Z,1.80
2022-10-18T11:46:02.388Z,1.70
2022-10-18T11:48:59.959Z,1.73
2022-10-18T11:51:55.938Z,2.22
2022-10-18T11:57:19.707Z,1.90
2022-10-18T12:00:29.005Z,1.70
2022-10-18T12:03:01.325Z,2.38
2022-10-18T12:05:29.399Z,2.25
2022-10-18T12:08:07.504Z,2.20
2022-10-18T12:10:53.215Z,1.80
2022-10-18T12:13:51.040Z,1.70
2022-10-18T12:16:33.793Z,1.90
2022-10-18T12:19:15.303Z,1.60
2022-10-18T12:21:43.530Z,2.30
2022-10-18T12:24:19.868Z,1.58
2022-10-18T12:26:49.837Z,1.88
2022-10-18T12:29:32.728Z,1.95
2022-10-18T12:32:22.189Z,2.00
2022-10-18T12:34:54.205Z,1.60
2022-10-18T12:37:50.400Z,1.83
2022-10-18T12:40:41.139Z,1.55
2022-10-18T12:43:10.730Z,1.77
2022-10-18T12:45:50.686Z,2.10
2022-10-18T12:48:39.422Z,1.90
2022-10-18T12:51:12.320Z,1.83
2022-10-18T12:53:39.707Z,1.85
2022-10-18T12:56:28.115Z,2.03
2022-10-18T12:59:16.419Z,1.75
2022-10-18T13:01:52.054Z,1.70
2022-10-18T13:04:27.710Z,1.92
2022-10-18T13:07:18.375Z,2.03
2022-10-18T13:10:07.790Z,1.85
2022-10-18T13:13:39.659Z,1.50
2022-10-18T13:16:13.732Z,1.40
2022-10-18T13:18:55.500Z,1.63
2022-10-18T13:21:40.209Z,1.95
2022-10-18T13:24:37.911Z,2.05
2022-10-18T13:27:36.429Z,2.50
2022-10-18T13:30:33.708Z,2.60
2022-10-18T13:33:16.929Z,1.30
2022-10-18T13:35:52.067Z,1.70
2022-10-18T13:38:33.519Z,2.20
2022-10-18T13:41:07.694Z,1.90
2022-10-18T13:43:52.987Z,1.63
2022-10-18T13:46:20.766Z,1.85
2022-10-18T13:48:49.832Z,2.03
2022-10-18T13:51:25.340Z,1.90
2022-10-18T13:54:07.319Z,2.00
2022-10-18T13:56:49.932Z,1.70
2022-10-18T13:59:44.400Z,1.90
2022-10-18T14:02:51.718Z,2.00
2022-10-18T14:05:33.795Z,1.63
2022-10-18T14:08:09.520Z,2.13
2022-10-18T14:11:02.082Z,2.13
2022-10-18T14:13:55.990Z,2.17
2022-10-18T14:16:42.774Z,2.13
2022-10-18T14:19:34.665Z,1.90
2022-10-18T14:22:22.500Z,1.80
2022-10-18T14:24:54.070Z,2.40
2022-10-18T14:27:24.840Z,1.60
2022-10-18T14:30:09.851Z,1.80
2022-10-18T14:32:36.598Z,1.60
2022-10-18T14:37:53.643Z,2.00
2022-10-18T14:40:39.434Z,2.10
2022-10-18T14:43:08.978Z,1.77
2022-10-18T14:45:35.543Z,2.05
2022-10-18T14:48:16.198Z,2.50
2022-10-18T14:50:46.175Z,2.20
2022-10-18T14:53:18.614Z,1.73
2022-10-18T14:55:55.389Z,1.83
2022-10-18T14:58:22.355Z,2.08
2022-10-18T15:00:49.205Z,2.15
2022-10-18T15:03:17.607Z,1.80
2022-10-18T15:06:02.216Z,1.83
2022-10-18T15:08:35.783Z,1.73
2022-10-18T15:11:02.666Z,2.00
2022-10-18T15:13:31.549Z,1.83
2022-10-18T15:15:59.067Z,1.80
2022-10-18T15:18:27.794Z,1.70
2022-10-18T15:21:20.133Z,1.80
2022-10-18T15:23:46.980Z,1.73
2022-10-18T15:26:20.880Z,1.63
2022-10-18T15:28:53.929Z,1.97
2022-10-18T15:31:25.577Z,1.60
2022-10-18T15:33:54.194Z,1.40
2022-10-18T15:36:29.523Z,1.50
2022-10-18T15:39:21.531Z,1.70
2022-10-18T15:42:02.246Z,1.40
2022-10-18T15:44:45.953Z,2.28
2022-10-18T15:47:12.465Z,1.98
2022-10-18T15:49:45.185Z,1.77
2022-10-18T15:52:23.680Z,1.75
2022-10-18T15:54:50.241Z,1.80
2022-10-18T15:57:18.541Z,1.70
2022-10-18T16:00:00.547Z,1.90
2022-10-18T16:02:27.632Z,1.50
2022-10-18T16:04:54.382Z,1.83
2022-10-18T16:07:20.952Z,2.00
2022-10-18T16:09:48.519Z,2.30
2022-10-18T16:12:15.080Z,2.05
2022-10-18T16:14:41.621Z,2.20
2022-10-18T16:17:16.543Z,2.17
2022-10-18T16:19:44.503Z,2.10
2022-10-18T16:24:40.394Z,1.67
2022-10-18T16:27:07.012Z,2.28
2022-10-18T16:29:33.554Z,1.73
2022-10-18T16:32:01.080Z,1.83
2022-10-18T16:34:27.874Z,2.28
2022-10-18T16:36:54.968Z,1.90
2022-10-18T16:39:22.644Z,2.25
2022-10-18T16:41:49.599Z,2.10
2022-10-18T16:44:17.068Z,2.83
2022-10-18T16:46:43.883Z,2.58
2022-10-18T16:49:25.470Z,2.35
2022-10-18T16:51:53.514Z,2.20
2022-10-18T16:54:20.556Z,2.28
2022-10-18T16:56:50.141Z,2.50
2022-10-18T16:59:28.973Z,2.10
2022-10-18T17:01:55.732Z,2.10
2022-10-18T17:04:22.420Z,2.08
2022-10-18T17:06:49.363Z,2.33
2022-10-18T17:09:16.181Z,2.57
2022-10-18T17:11:42.760Z,2.63
2022-10-18T17:14:09.379Z,2.50
2022-10-18T17:16:38.567Z,2.35
2022-10-18T17:19:10.377Z,2.70
2022-10-18T17:21:37.100Z,2.40
2022-10-18T17:24:05.882Z,2.28
2022-10-18T17:26:32.787Z,2.67
2022-10-18T17:29:05.931Z,2.80
2022-10-18T17:31:32.718Z,2.72
2022-10-18T17:34:01.453Z,2.60
2022-10-18T17:36:28.922Z,2.83
2022-10-18T17:38:56.011Z,3.08
2022-10-18T17:41:22.671Z,3.08
2022-10-18T17:43:49.279Z,3.65
2022-10-18T17:46:17.595Z,3.03
2022-10-18T17:48:44.190Z,2.72
2022-10-18T17:51:13.300Z,3.03
2022-10-18T17:53:40.191Z,2.70
2022-10-18T17:56:07.722Z,3.33
2022-10-18T17:58:34.809Z,2.70
2022-10-18T18:01:18.915Z,3.35
2022-10-18T18:03:47.787Z,2.65
2022-10-18T18:06:17.265Z,2.53
2022-10-18T18:08:44.666Z,2.95
2022-10-18T18:11:11.432Z,2.83
2022-10-18T18:13:38.047Z,2.83
2022-10-18T18:16:19.586Z,3.00
2022-10-18T18:18:48.378Z,3.63
2022-10-18T18:21:14.995Z,3.40
2022-10-18T18:23:41.668Z,3.23
2022-10-18T18:26:08.293Z,2.95
2022-10-18T18:28:36.168Z,3.25
2022-10-18T18:31:23.387Z,3.30
2022-10-18T18:33:51.610Z,3.55
2022-10-18T18:36:18.703Z,2.87
2022-10-18T18:38:45.755Z,2.40
2022-10-18T18:41:25.916Z,2.88
2022-10-18T18:44:01.536Z,3.20
2022-10-18T18:46:30.248Z,4.40
2022-10-18T18:48:57.700Z,4.00
2022-10-18T18:51:24.687Z,4.07
2022-10-18T18:53:51.881Z,4.40
2022-10-18T18:58:48.932Z,6.00
2022-10-18T19:01:23.470Z,6.43
2022-10-18T19:03:52.672Z,5.63
2022-10-18T19:06:30.665Z,6.78
2022-10-18T19:09:03.757Z,5.43
2022-10-18T19:11:37.663Z,5.50
2022-10-18T19:14:05.717Z,4.87
2022-10-18T19:16:41.611Z,5.10
2022-10-18T19:19:13.371Z,4.70
2022-10-18T19:21:46.093Z,4.22
2022-10-18T19:24:13.462Z,4.30
2022-10-18T19:26:45.948Z,4.30
2022-10-18T19:29:15.104Z,4.07
2022-10-18T19:31:42.535Z,3.70
2022-10-18T19:34:11.756Z,3.90
2022-10-18T19:36:40.195Z,3.95
2022-10-18T19:39:08.583Z,4.23
2022-10-18T19:41:35.285Z,3.63
2022-10-18T19:44:01.884Z,4.38
2022-10-18T19:46:28.672Z,4.40
2022-10-18T19:48:55.299Z,4.28
2022-10-18T19:51:26.848Z,3.93
2022-10-18T19:53:55.462Z,4.30
2022-10-18T19:56:23.897Z,3.92
2022-10-18T19:58:50.639Z,4.10
2022-10-18T20:01:18.423Z,3.95
2022-10-18T20:03:45.747Z,3.63
2022-10-18T20:06:12.658Z,3.60
2022-10-18T20:08:39.866Z,3.53
2022-10-18T20:11:09.688Z,3.85
2022-10-18T20:13:36.483Z,3.55
2022-10-18T20:16:05.413Z,3.77
2022-10-18T20:18:32.024Z,3.55
2022-10-18T20:20:58.740Z,3.70
2022-10-18T20:23:25.456Z,3.78
2022-10-18T20:25:59.884Z,3.90
2022-10-18T20:28:27.272Z,3.77
2022-10-18T20:31:05.289Z,3.97
2022-10-18T20:33:33.184Z,4.13
2022-10-18T20:36:08.463Z,3.80
2022-10-18T20:38:36.547Z,4.43
2022-10-18T20:41:18.898Z,3.93
2022-10-18T20:43:53.915Z,3.75
2022-10-18T20:46:21.310Z,3.40
2022-10-18T20:48:49.768Z,3.78
2022-10-18T20:51:17.136Z,3.60
2022-10-18T20:53:43.964Z,3.43
2022-10-18T20:56:13.719Z,3.15
2022-10-18T20:58:42.376Z,3.75
2022-10-18T21:01:20.719Z,5.28
2022-10-18T21:03:49.158Z,5.53
2022-10-18T21:06:24.993Z,5.20
2022-10-18T21:08:57.324Z,4.60
2022-10-18T21:11:25.497Z,4.47
2022-10-18T21:13:54.296Z,3.95
2022-10-18T21:16:20.979Z,4.07
2022-10-18T21:18:48.168Z,4.17
2022-10-18T21:21:18.091Z,3.88
2022-10-18T21:23:45.098Z,3.60
2022-10-18T21:26:20.416Z,3.70
2022-10-18T21:28:49.185Z,3.63
2022-10-18T21:31:43.323Z,3.77
2022-10-18T21:34:15.314Z,4.15
2022-10-18T21:36:43.984Z,3.70
2022-10-18T21:39:14.799Z,3.63
2022-10-18T21:41:42.548Z,3.78
2022-10-18T21:44:11.130Z,4.03
2022-10-18T21:46:39.333Z,4.53
2022-10-18T21:49:06.959Z,3.85
2022-10-18T21:51:33.544Z,3.83
2022-10-18T21:54:00.119Z,4.50
2022-10-18T21:56:29.693Z,4.00
2022-10-18T21:58:56.836Z,4.20
2022-10-18T22:01:32.518Z,4.18
2022-10-18T22:04:01.018Z,3.33
2022-10-18T22:06:30.087Z,3.58
2022-10-18T22:08:59.329Z,3.93
2022-10-18T22:11:32.139Z,4.50
2022-10-18T22:13:59.161Z,3.67
2022-10-18T22:16:26.208Z,3.83
2022-10-18T22:18:56.794Z,4.07
2022-10-18T22:21:23.438Z,5.00
2022-10-18T22:23:52.357Z,5.13
2022-10-18T22:26:28.020Z,5.13
2022-10-18T22:29:19.291Z,4.82
2022-10-18T22:31:48.739Z,5.75
2022-10-18T22:34:17.698Z,5.67
2022-10-18T22:36:44.719Z,5.20
2022-10-18T22:39:14.176Z,6.00
2022-10-18T22:41:41.885Z,5.68
2022-10-18T22:44:12.009Z,5.75
2022-10-18T22:46:39.595Z,5.43
2022-10-18T22:49:06.368Z,5.28
2022-10-18T22:51:33.263Z,5.30
2022-10-18T22:53:59.845Z,5.50
2022-10-18T22:56:26.474Z,4.97
2022-10-18T22:58:53.172Z,5.30
2022-10-18T23:01:21.885Z,5.40
2022-10-18T23:03:55.542Z,5.60
2022-10-18T23:06:25.091Z,5.93
2022-10-18T23:08:53.266Z,5.40
2022-10-18T23:11:20.690Z,6.37
2022-10-18T23:13:47.479Z,6.93
2022-10-18T23:16:14.398Z,6.90
2022-10-18T23:18:41.037Z,6.75
2022-10-18T23:21:09.841Z,6.47
2022-10-18T23:23:38.030Z,6.80
2022-10-18T23:26:06.702Z,6.28
2022-10-18T23:28:37.913Z,6.95
2022-10-18T23:31:18.026Z,6.80
2022-10-18T23:33:46.220Z,6.50
2022-10-18T23:36:12.952Z,6.33
2022-10-18T23:38:40.196Z,6.47
2022-10-18T23:41:08.570Z,6.63
2022-10-18T23:43:35.732Z,6.43
2022-10-18T23:46:02.365Z,7.63
2022-10-18T23:48:29.287Z,7.33
2022-10-18T23:50:56.087Z,6.97
2022-10-18T23:53:22.823Z,6.28
2022-10-18T23:55:53.812Z,6.18
2022-10-18T23:58:20.398Z,5.70
